Palo Pinto, Texas
Current Conditions -  °F | °C
As of 8:30 AM on Sunday 23 Nov 2014 (Local Time) from KRPH Reporting Station
Clear Clear  
Wind Chill: 53°   Ceiling: Unl
Heat Index: 53°   Visibility: 10mi
Dew Point: 51°   Wind: 7mph
Humidity: 91%   Direction: 180°S
Pressure: 29.51"   Gusts: NA
Location:  32.77°N, 98.3°W
Report Text: KRPH 231430Z AUTO 18006KT 10SM CLR 12/10 A2951 RMK AO2 T01180103
Loading
Personal Weather Stations






























Interactive Weather Map New forecast layout! Learn more

10-Day Weather Forecast

Advertisements
Track Severe Weather on mobile